createdAt,value
2017-11-13T00:01:54.805Z,8.10
2017-11-13T00:04:23.085Z,7.03
2017-11-13T00:06:51.361Z,6.50
2017-11-13T00:09:19.636Z,11.20
2017-11-13T00:11:47.920Z,19.57
2017-11-13T00:14:16.206Z,10.37
2017-11-13T00:16:44.511Z,12.80
2017-11-13T00:19:13.560Z,10.90
2017-11-13T00:21:41.842Z,8.97
2017-11-13T00:24:11.082Z,7.47
2017-11-13T00:26:39.352Z,4.20
2017-11-13T00:29:07.633Z,5.63
2017-11-13T00:31:35.924Z,4.80
2017-11-13T00:34:04.223Z,6.47
2017-11-13T00:36:33.158Z,4.10
2017-11-13T00:39:01.433Z,4.33
2017-11-13T00:41:29.727Z,4.03
2017-11-13T00:43:58.009Z,4.12
2017-11-13T00:46:26.281Z,4.80
2017-11-13T00:48:54.578Z,5.90
2017-11-13T00:51:22.858Z,4.78
2017-11-13T00:53:51.139Z,3.73
2017-11-13T00:56:19.737Z,7.30
2017-11-13T00:58:48.017Z,2.70
2017-11-13T01:01:16.309Z,4.27
2017-11-13T01:03:46.504Z,4.57
2017-11-13T01:06:14.785Z,3.65
2017-11-13T01:08:43.058Z,1.93
2017-11-13T01:11:11.334Z,3.50
2017-11-13T01:13:39.613Z,2.60
2017-11-13T01:16:07.918Z,1.87
2017-11-13T01:18:36.218Z,3.47
2017-11-13T01:21:05.186Z,2.53
2017-11-13T01:23:33.454Z,3.90
2017-11-13T01:26:01.732Z,2.67
2017-11-13T01:28:30.013Z,8.20
2017-11-13T01:30:58.289Z,5.60
2017-11-13T01:33:26.570Z,3.40
2017-11-13T01:35:54.849Z,2.85
2017-11-13T01:38:23.125Z,2.37
2017-11-13T01:40:51.400Z,2.00
2017-11-13T01:43:19.694Z,1.10
2017-11-13T01:45:47.977Z,1.50
2017-11-13T01:48:16.254Z,1.30
2017-11-13T01:50:44.543Z,1.67
2017-11-13T01:53:12.813Z,1.25
2017-11-13T01:55:41.096Z,3.43
2017-11-13T01:58:09.367Z,1.52
2017-11-13T02:00:37.658Z,2.00
2017-11-13T02:03:05.937Z,0.87
2017-11-13T02:05:34.209Z,0.97
2017-11-13T02:08:02.542Z,0.90
2017-11-13T02:10:30.827Z,1.40
2017-11-13T02:13:00.919Z,1.50
2017-11-13T02:15:30.146Z,2.03
2017-11-13T02:17:58.438Z,0.85
2017-11-13T02:20:26.716Z,1.20
2017-11-13T02:22:54.991Z,2.37
2017-11-13T02:25:23.280Z,1.10
2017-11-13T02:27:51.578Z,2.00
2017-11-13T02:30:19.855Z,1.40
2017-11-13T02:32:48.158Z,3.07
2017-11-13T02:35:16.417Z,2.90
2017-11-13T02:37:44.697Z,0.73
2017-11-13T02:40:12.993Z,2.10
2017-11-13T02:42:41.269Z,2.90
2017-11-13T02:45:09.553Z,2.30
2017-11-13T02:47:37.881Z,1.73
2017-11-13T02:50:06.159Z,1.35
2017-11-13T02:52:34.434Z,1.67
2017-11-13T02:55:02.730Z,1.53
2017-11-13T02:57:31.006Z,1.33
2017-11-13T02:59:59.299Z,1.00
2017-11-13T03:02:27.592Z,2.03
2017-11-13T03:04:55.878Z,1.60
2017-11-13T03:07:24.162Z,1.00
2017-11-13T03:09:52.441Z,1.10
2017-11-13T03:12:21.517Z,1.20
2017-11-13T03:14:50.563Z,3.27
2017-11-13T03:17:18.849Z,0.97
2017-11-13T03:19:47.652Z,1.07
2017-11-13T03:22:16.714Z,1.05
2017-11-13T03:24:44.993Z,2.77
2017-11-13T03:27:13.298Z,1.30
2017-11-13T03:29:41.582Z,1.13
2017-11-13T03:32:10.582Z,1.80
2017-11-13T03:34:38.858Z,1.90
2017-11-13T03:37:07.142Z,1.40
2017-11-13T03:39:36.187Z,1.33
2017-11-13T03:42:04.462Z,1.90
2017-11-13T03:44:32.753Z,0.73
2017-11-13T03:47:01.040Z,1.87
2017-11-13T03:49:29.318Z,1.07
2017-11-13T03:51:58.852Z,3.30
2017-11-13T03:54:27.138Z,2.77
2017-11-13T03:56:55.417Z,1.00
2017-11-13T03:59:23.712Z,0.80
2017-11-13T04:01:52.764Z,1.40
2017-11-13T04:04:21.817Z,0.90
2017-11-13T04:06:50.090Z,3.20
2017-11-13T04:09:18.381Z,1.60
2017-11-13T04:11:46.661Z,2.20
2017-11-13T04:14:14.936Z,3.70
2017-11-13T04:16:43.498Z,1.20
2017-11-13T04:19:11.785Z,1.40
2017-11-13T04:21:40.076Z,1.20
2017-11-13T04:24:08.350Z,2.90
2017-11-13T04:26:36.629Z,0.97
2017-11-13T04:29:04.905Z,2.13
2017-11-13T04:31:33.187Z,1.73
2017-11-13T04:34:01.461Z,1.05
2017-11-13T04:36:29.737Z,0.90
2017-11-13T04:38:58.017Z,0.90
2017-11-13T04:41:26.296Z,0.63
2017-11-13T04:43:54.580Z,0.90
2017-11-13T04:46:23.635Z,0.80
2017-11-13T04:48:51.909Z,1.47
2017-11-13T04:51:20.189Z,0.63
2017-11-13T04:53:48.474Z,1.50
2017-11-13T04:56:17.041Z,0.50
2017-11-13T04:58:45.327Z,0.60
2017-11-13T05:01:13.609Z,1.17
2017-11-13T05:03:41.889Z,0.87
2017-11-13T05:06:10.166Z,0.70
2017-11-13T05:08:38.441Z,1.03
2017-11-13T05:11:06.720Z,0.60
2017-11-13T05:13:34.970Z,0.40
2017-11-13T05:16:03.250Z,2.40
2017-11-13T05:18:31.534Z,1.60
2017-11-13T05:20:59.879Z,1.77
2017-11-13T05:23:28.230Z,1.63
2017-11-13T05:25:56.517Z,2.17
2017-11-13T05:28:25.570Z,1.80
2017-11-13T05:30:53.858Z,1.10
2017-11-13T05:33:22.154Z,1.00
2017-11-13T05:35:51.193Z,1.47
2017-11-13T05:38:19.481Z,1.60
2017-11-13T05:40:47.763Z,1.20
2017-11-13T05:43:16.042Z,1.47
2017-11-13T05:45:44.324Z,2.07
2017-11-13T05:48:12.625Z,6.80
2017-11-13T05:50:40.894Z,9.53
2017-11-13T05:53:09.184Z,4.27
2017-11-13T05:55:38.241Z,8.37
2017-11-13T05:58:06.971Z,7.47
2017-11-13T06:00:35.239Z,6.63
2017-11-13T06:03:04.275Z,8.33
2017-11-13T06:05:32.561Z,2.67
2017-11-13T06:08:00.833Z,3.15
2017-11-13T06:10:29.199Z,2.47
2017-11-13T06:12:57.498Z,7.30
2017-11-13T06:15:25.810Z,3.20
2017-11-13T06:17:54.094Z,3.03
2017-11-13T06:20:22.422Z,6.00
2017-11-13T06:22:50.709Z,3.35
2017-11-13T06:25:18.989Z,2.33
2017-11-13T06:27:47.269Z,1.90
2017-11-13T06:30:15.541Z,3.85
2017-11-13T06:32:44.094Z,1.83
2017-11-13T06:35:12.374Z,2.80
2017-11-13T06:37:40.648Z,1.80
2017-11-13T06:40:09.024Z,1.70
2017-11-13T06:42:37.332Z,1.77
2017-11-13T06:45:05.646Z,1.40
2017-11-13T06:47:33.936Z,2.70
2017-11-13T06:50:02.217Z,3.20
2017-11-13T06:52:30.552Z,1.80
2017-11-13T06:54:58.844Z,15.50
2017-11-13T06:57:27.204Z,4.27
2017-11-13T06:59:55.497Z,3.37
2017-11-13T07:02:23.781Z,4.90
2017-11-13T07:04:52.878Z,1.83
2017-11-13T07:07:21.984Z,2.13
2017-11-13T07:09:50.266Z,2.67
2017-11-13T07:12:18.541Z,2.80
2017-11-13T07:14:46.837Z,2.95
2017-11-13T07:17:15.842Z,2.20
2017-11-13T07:19:44.113Z,5.87
2017-11-13T07:22:12.388Z,3.00
2017-11-13T07:24:40.662Z,6.97
2017-11-13T07:27:09.702Z,5.33
2017-11-13T07:29:37.979Z,2.53
2017-11-13T07:32:06.359Z,5.65
2017-11-13T07:34:35.412Z,8.60
2017-11-13T07:37:03.697Z,10.43
2017-11-13T07:39:31.985Z,10.53
2017-11-13T07:42:00.283Z,5.60
2017-11-13T07:44:29.353Z,4.43
2017-11-13T07:46:57.648Z,6.10
2017-11-13T07:49:25.941Z,5.73
2017-11-13T07:51:54.222Z,6.60
2017-11-13T07:54:23.271Z,6.30
2017-11-13T07:56:51.554Z,4.30
2017-11-13T07:59:19.853Z,3.37
2017-11-13T08:01:48.141Z,5.93
2017-11-13T08:04:16.456Z,5.03
2017-11-13T08:06:44.737Z,6.35
2017-11-13T08:09:13.010Z,6.03
2017-11-13T08:11:41.284Z,2.80
2017-11-13T08:14:09.586Z,3.57
2017-11-13T08:16:38.071Z,5.35
2017-11-13T08:19:06.350Z,4.33
2017-11-13T08:21:35.409Z,5.07
2017-11-13T08:24:03.705Z,3.72
2017-11-13T08:26:32.000Z,7.35
2017-11-13T08:29:00.777Z,3.30
2017-11-13T08:31:29.057Z,4.53
2017-11-13T08:33:57.994Z,3.13
2017-11-13T08:36:29.221Z,2.20
2017-11-13T08:38:58.340Z,1.87
2017-11-13T08:41:26.626Z,2.07
2017-11-13T08:43:54.893Z,1.95
2017-11-13T08:46:23.169Z,3.83
2017-11-13T08:48:51.455Z,1.67
2017-11-13T08:51:19.832Z,3.72
2017-11-13T08:53:48.125Z,5.10
2017-11-13T08:56:16.413Z,2.10
2017-11-13T08:58:44.706Z,2.20
2017-11-13T09:01:12.981Z,1.87
2017-11-13T09:03:41.243Z,0.93
2017-11-13T09:06:09.534Z,1.23
2017-11-13T09:08:37.818Z,1.45
2017-11-13T09:11:06.145Z,1.10
2017-11-13T09:13:34.426Z,1.83
2017-11-13T09:16:02.756Z,1.00
2017-11-13T09:18:31.038Z,3.95
2017-11-13T09:20:59.316Z,2.07
2017-11-13T09:23:27.599Z,1.50
2017-11-13T09:25:55.890Z,1.23
2017-11-13T09:28:24.210Z,1.73
2017-11-13T09:30:52.794Z,3.47
2017-11-13T09:33:21.070Z,1.10
2017-11-13T09:35:49.350Z,1.83
2017-11-13T09:38:17.673Z,2.47
2017-11-13T09:40:46.604Z,1.85
2017-11-13T09:43:15.341Z,1.07
2017-11-13T09:45:43.700Z,2.33
2017-11-13T09:48:12.014Z,1.37
2017-11-13T09:50:40.477Z,1.33
2017-11-13T09:53:08.793Z,1.80
2017-11-13T09:55:37.279Z,4.43
2017-11-13T09:58:05.597Z,2.80
2017-11-13T10:00:34.057Z,0.88
2017-11-13T10:03:08.409Z,4.47
2017-11-13T10:05:37.503Z,4.10
2017-11-13T10:08:05.789Z,1.60
2017-11-13T10:10:34.080Z,1.52
2017-11-13T10:13:02.363Z,2.50
2017-11-13T10:15:30.656Z,1.57
2017-11-13T10:17:59.033Z,1.00
2017-11-13T10:20:27.366Z,3.17
2017-11-13T10:22:55.654Z,2.87
2017-11-13T10:25:24.698Z,2.47
2017-11-13T10:27:53.016Z,3.33
2017-11-13T10:30:22.070Z,2.60
2017-11-13T10:32:50.345Z,5.07
2017-11-13T10:35:18.637Z,2.00
2017-11-13T10:37:46.954Z,2.10
2017-11-13T10:40:15.246Z,1.43
2017-11-13T10:42:43.576Z,5.67
2017-11-13T10:45:12.650Z,1.40
2017-11-13T10:47:40.934Z,1.93
2017-11-13T10:50:09.226Z,2.80
2017-11-13T10:52:38.318Z,3.37
2017-11-13T10:55:06.601Z,1.17
2017-11-13T10:57:34.947Z,1.87
2017-11-13T11:00:03.225Z,4.03
2017-11-13T11:02:31.961Z,1.00
2017-11-13T11:05:00.262Z,2.03
2017-11-13T11:07:28.546Z,1.90
2017-11-13T11:09:57.633Z,3.97
2017-11-13T11:12:27.248Z,4.68
2017-11-13T11:14:56.954Z,2.27
2017-11-13T11:17:29.524Z,3.67
2017-11-13T11:20:12.681Z,1.40
2017-11-13T11:22:41.918Z,2.87
2017-11-13T11:25:11.204Z,2.37
2017-11-13T11:27:39.506Z,1.20
2017-11-13T11:30:13.562Z,1.03
2017-11-13T11:35:53.068Z,0.90
2017-11-13T11:38:22.113Z,2.00
2017-11-13T11:40:50.418Z,1.40
2017-11-13T11:43:18.701Z,1.58
2017-11-13T11:45:48.501Z,1.97
2017-11-13T11:48:27.454Z,0.90
2017-11-13T11:50:56.499Z,4.40
2017-11-13T11:53:26.235Z,3.28
2017-11-13T11:55:55.819Z,2.00
2017-11-13T11:58:24.105Z,0.80
2017-11-13T12:00:52.394Z,1.40
2017-11-13T12:03:20.696Z,3.23
2017-11-13T12:05:48.980Z,1.63
2017-11-13T12:08:17.263Z,0.97
2017-11-13T12:10:45.692Z,2.08
2017-11-13T12:13:14.032Z,0.37
2017-11-13T12:15:42.313Z,1.37
2017-11-13T12:18:10.595Z,3.30
2017-11-13T12:20:38.897Z,2.30
2017-11-13T12:23:07.196Z,3.60
2017-11-13T12:25:36.290Z,2.43
2017-11-13T12:28:06.033Z,1.93
2017-11-13T12:30:34.839Z,2.47
2017-11-13T12:33:03.214Z,1.43
2017-11-13T12:35:31.993Z,1.00
2017-11-13T12:38:00.277Z,2.20
2017-11-13T12:40:28.565Z,1.93
2017-11-13T12:42:56.907Z,1.63
2017-11-13T12:45:25.265Z,1.40
2017-11-13T12:47:53.619Z,1.77
2017-11-13T12:50:21.929Z,2.23
2017-11-13T12:52:50.248Z,1.83
2017-11-13T12:55:18.518Z,1.83
2017-11-13T12:57:46.785Z,5.97
2017-11-13T13:00:15.042Z,1.53
2017-11-13T13:02:43.310Z,5.10
2017-11-13T13:05:11.649Z,1.97
2017-11-13T13:07:40.048Z,2.60
2017-11-13T13:10:08.335Z,2.50
2017-11-13T13:12:36.621Z,1.23
2017-11-13T13:15:05.697Z,3.63
2017-11-13T13:17:33.993Z,1.27
2017-11-13T13:20:03.971Z,1.77
2017-11-13T13:22:32.284Z,1.60
2017-11-13T13:25:01.349Z,1.80
2017-11-13T13:27:29.643Z,2.80
2017-11-13T13:29:57.930Z,1.80
2017-11-13T13:32:26.646Z,3.23
2017-11-13T13:34:54.938Z,3.15
2017-11-13T13:37:23.241Z,2.43
2017-11-13T13:39:51.541Z,1.70
2017-11-13T13:42:20.602Z,2.80
2017-11-13T13:44:48.885Z,2.65
2017-11-13T13:47:17.182Z,0.90
2017-11-13T13:49:45.469Z,4.60
2017-11-13T13:52:13.761Z,1.48
2017-11-13T13:54:42.045Z,1.70
2017-11-13T13:57:10.339Z,3.93
2017-11-13T13:59:39.009Z,1.47
2017-11-13T14:02:07.321Z,2.40
2017-11-13T14:04:35.651Z,3.47
2017-11-13T14:07:04.688Z,1.47
2017-11-13T14:09:32.973Z,2.30
2017-11-13T14:12:01.257Z,2.23
2017-11-13T14:14:29.549Z,2.87
2017-11-13T14:16:57.869Z,1.10
2017-11-13T14:19:27.413Z,2.50
2017-11-13T14:21:55.709Z,1.60
2017-11-13T14:24:23.994Z,1.93
2017-11-13T14:26:52.314Z,1.42
2017-11-13T14:29:20.599Z,2.60
2017-11-13T14:31:49.649Z,1.60
2017-11-13T14:34:18.700Z,4.10
2017-11-13T14:36:48.038Z,1.83
2017-11-13T14:39:16.329Z,2.77
2017-11-13T14:41:45.364Z,1.83
2017-11-13T14:44:13.634Z,4.20
2017-11-13T14:46:43.144Z,3.17
2017-11-13T14:49:11.455Z,3.03
2017-11-13T14:51:39.742Z,1.90
2017-11-13T14:54:08.813Z,3.80
2017-11-13T14:56:37.102Z,2.90
2017-11-13T14:59:05.390Z,3.60
2017-11-13T15:01:33.684Z,2.30
2017-11-13T15:04:01.974Z,3.77
2017-11-13T15:06:30.478Z,4.03
2017-11-13T15:08:58.770Z,3.30
2017-11-13T15:11:27.057Z,3.10
2017-11-13T15:13:55.367Z,6.17
2017-11-13T15:16:23.651Z,3.40
2017-11-13T15:18:51.929Z,1.20
2017-11-13T15:21:20.201Z,4.43
2017-11-13T15:23:48.495Z,2.10
2017-11-13T15:26:16.777Z,2.92
2017-11-13T15:28:45.088Z,2.53
2017-11-13T15:31:13.378Z,1.33
2017-11-13T15:33:43.238Z,1.40
2017-11-13T15:36:11.516Z,2.60
2017-11-13T15:38:39.802Z,1.77
2017-11-13T15:41:08.170Z,1.47
2017-11-13T15:43:36.449Z,3.60
2017-11-13T15:46:04.723Z,1.30
2017-11-13T15:48:33.000Z,3.60
2017-11-13T15:51:01.281Z,4.50
2017-11-13T15:53:29.558Z,3.43
2017-11-13T15:55:57.858Z,2.30
2017-11-13T15:58:26.957Z,4.83
2017-11-13T16:00:55.242Z,2.80
2017-11-13T16:03:25.315Z,1.73
2017-11-13T16:05:53.594Z,6.57
2017-11-13T16:08:21.890Z,3.50
2017-11-13T16:10:50.169Z,4.40
2017-11-13T16:13:18.431Z,3.20
2017-11-13T16:15:46.720Z,5.03
2017-11-13T16:18:14.994Z,3.33
2017-11-13T16:20:43.285Z,2.33
2017-11-13T16:23:11.595Z,3.67
2017-11-13T16:25:40.637Z,5.07
2017-11-13T16:28:08.925Z,3.87
2017-11-13T16:30:37.195Z,3.33
2017-11-13T16:33:05.495Z,5.57
2017-11-13T16:35:33.756Z,6.10
2017-11-13T16:38:02.034Z,8.93
2017-11-13T16:40:30.306Z,12.97
2017-11-13T16:42:58.579Z,12.00
2017-11-13T16:45:26.847Z,6.90
2017-11-13T16:47:55.110Z,4.90
2017-11-13T16:50:23.401Z,11.43
2017-11-13T16:52:51.723Z,8.70
2017-11-13T16:55:19.998Z,6.73
2017-11-13T16:57:48.286Z,6.23
2017-11-13T17:00:17.350Z,3.20
2017-11-13T17:02:45.636Z,7.57
2017-11-13T17:05:13.925Z,5.30
2017-11-13T17:07:42.220Z,5.17
2017-11-13T17:10:10.511Z,4.00
2017-11-13T17:12:38.794Z,3.67
2017-11-13T17:15:07.081Z,4.95
2017-11-13T17:17:35.353Z,5.10
2017-11-13T17:20:03.703Z,4.75
2017-11-13T17:22:31.990Z,5.43
2017-11-13T17:25:00.684Z,8.75
2017-11-13T17:27:28.960Z,8.20
2017-11-13T17:29:57.263Z,8.40
2017-11-13T17:32:25.550Z,6.33
2017-11-13T17:34:53.887Z,4.07
2017-11-13T17:37:22.179Z,4.67
2017-11-13T17:39:50.453Z,2.40
2017-11-13T17:42:18.734Z,3.45
2017-11-13T17:44:47.009Z,3.87
2017-11-13T17:47:15.307Z,7.57
2017-11-13T17:49:43.589Z,3.53
2017-11-13T17:52:11.878Z,2.83
2017-11-13T17:54:40.195Z,3.70
2017-11-13T17:57:08.481Z,2.77
2017-11-13T17:59:36.765Z,4.32
2017-11-13T18:02:05.056Z,10.30
2017-11-13T18:04:33.332Z,6.97
2017-11-13T18:07:01.614Z,12.10
2017-11-13T18:09:29.950Z,12.83
2017-11-13T18:11:58.252Z,5.87
2017-11-13T18:14:26.532Z,7.13
2017-11-13T18:16:54.808Z,7.40
2017-11-13T18:19:23.093Z,10.33
2017-11-13T18:21:52.520Z,8.57
2017-11-13T18:24:21.605Z,6.32
2017-11-13T18:26:49.981Z,7.80
2017-11-13T18:29:18.314Z,8.73
2017-11-13T18:31:46.675Z,11.80
2017-11-13T18:34:15.173Z,10.00
2017-11-13T18:36:44.090Z,12.00
2017-11-13T18:39:12.637Z,7.40
2017-11-13T18:41:41.354Z,10.00
2017-11-13T18:44:10.747Z,14.83
2017-11-13T18:46:39.322Z,10.23
2017-11-13T18:49:09.431Z,8.10
2017-11-13T18:51:39.016Z,7.82
2017-11-13T18:54:08.431Z,9.87
2017-11-13T18:56:37.571Z,9.93
2017-11-13T18:59:06.419Z,7.55
2017-11-13T19:01:35.654Z,8.18
2017-11-13T19:04:05.647Z,11.43
2017-11-13T19:06:35.148Z,7.60
2017-11-13T19:09:06.867Z,7.50
2017-11-13T19:11:36.313Z,4.93
2017-11-13T19:14:07.385Z,3.78
2017-11-13T19:16:36.995Z,12.80
2017-11-13T19:19:06.722Z,15.43
2017-11-13T19:21:36.454Z,10.73
2017-11-13T19:24:06.355Z,6.33
2017-11-13T19:26:36.049Z,6.70
2017-11-13T19:29:05.905Z,7.17
2017-11-13T19:31:36.414Z,15.60
2017-11-13T19:34:06.197Z,13.00
2017-11-13T19:36:36.128Z,9.67
2017-11-13T19:39:06.260Z,7.80
2017-11-13T19:41:37.241Z,10.63
2017-11-13T19:44:07.041Z,7.33
2017-11-13T19:46:37.715Z,8.93
2017-11-13T19:49:07.540Z,12.80
2017-11-13T19:51:37.717Z,7.47
2017-11-13T19:54:08.379Z,9.30
2017-11-13T19:56:38.227Z,12.73
2017-11-13T19:59:08.139Z,13.47
2017-11-13T20:01:38.025Z,13.27
2017-11-13T20:04:07.806Z,12.37
2017-11-13T20:06:37.589Z,14.03
2017-11-13T20:09:07.638Z,15.37
2017-11-13T20:11:37.506Z,13.80
2017-11-13T20:14:07.416Z,9.68
2017-11-13T20:16:37.239Z,16.70
2017-11-13T20:19:07.051Z,13.53
2017-11-13T20:21:36.846Z,10.20
2017-11-13T20:24:06.708Z,11.80
2017-11-13T20:26:37.228Z,13.73
2017-11-13T20:29:07.120Z,12.30
2017-11-13T20:31:37.760Z,19.03
2017-11-13T20:34:08.435Z,13.03
2017-11-13T20:36:38.389Z,14.10
2017-11-13T20:39:09.199Z,15.38
2017-11-13T20:41:39.040Z,15.60
2017-11-13T20:44:09.919Z,10.13
2017-11-13T20:46:41.769Z,14.13
2017-11-13T20:49:11.752Z,13.70
2017-11-13T20:51:41.681Z,12.67
2017-11-13T20:54:11.461Z,9.17
2017-11-13T20:56:41.656Z,13.10
2017-11-13T20:59:11.661Z,14.50
2017-11-13T21:01:41.564Z,15.63
2017-11-13T21:04:11.334Z,13.00
2017-11-13T21:06:41.916Z,18.43
2017-11-13T21:09:11.715Z,21.43
2017-11-13T21:11:41.495Z,20.30
2017-11-13T21:14:11.323Z,16.87
2017-11-13T21:16:42.751Z,20.30
2017-11-13T21:19:12.680Z,15.73
2017-11-13T21:21:42.431Z,11.50
2017-11-13T21:24:12.054Z,18.83
2017-11-13T21:26:42.340Z,17.73
2017-11-13T21:29:12.395Z,11.53
2017-11-13T21:31:41.521Z,12.03
2017-11-13T21:34:10.131Z,15.70
2017-11-13T21:36:38.554Z,17.30
2017-11-13T21:39:06.925Z,12.50
2017-11-13T21:41:35.237Z,14.33
2017-11-13T21:44:04.327Z,14.70
2017-11-13T21:46:32.650Z,13.93
2017-11-13T21:49:00.947Z,16.23
2017-11-13T21:51:29.226Z,17.53
2017-11-13T21:53:57.521Z,11.40
2017-11-13T21:56:25.826Z,9.77
2017-11-13T21:58:54.887Z,15.47
2017-11-13T22:01:23.198Z,11.97
2017-11-13T22:03:52.467Z,12.80
2017-11-13T22:06:20.767Z,8.52
2017-11-13T22:08:49.101Z,16.30
2017-11-13T22:11:17.397Z,8.90
2017-11-13T22:13:45.695Z,9.30
2017-11-13T22:16:14.743Z,12.23
2017-11-13T22:18:43.058Z,13.03
2017-11-13T22:21:11.775Z,7.60
2017-11-13T22:23:40.073Z,10.20
2017-11-13T22:26:08.385Z,10.63
2017-11-13T22:28:36.759Z,10.45
2017-11-13T22:31:05.190Z,11.90
2017-11-13T22:33:33.470Z,11.23
2017-11-13T22:36:01.849Z,9.00
2017-11-13T22:38:30.165Z,9.03
2017-11-13T22:40:58.734Z,7.63
2017-11-13T22:43:27.030Z,12.23
2017-11-13T22:45:55.332Z,8.13
2017-11-13T22:48:23.673Z,11.03
2017-11-13T22:50:52.002Z,11.10
2017-11-13T22:53:21.058Z,9.23
2017-11-13T22:55:49.376Z,9.07
2017-11-13T22:58:17.686Z,10.57
2017-11-13T23:00:45.980Z,7.27
2017-11-13T23:03:14.249Z,9.97
2017-11-13T23:05:42.540Z,18.30
2017-11-13T23:08:10.822Z,13.20
2017-11-13T23:10:39.105Z,18.87
2017-11-13T23:13:07.398Z,12.70
2017-11-13T23:15:36.470Z,13.37
2017-11-13T23:18:04.835Z,13.37
2017-11-13T23:20:33.176Z,10.37
2017-11-13T23:23:01.473Z,15.03
2017-11-13T23:25:29.781Z,16.80
2017-11-13T23:27:58.067Z,15.00
2017-11-13T23:30:26.353Z,19.63
2017-11-13T23:32:54.655Z,18.03
2017-11-13T23:35:22.954Z,19.58
2017-11-13T23:37:51.242Z,51.17
2017-11-13T23:40:19.557Z,25.13
2017-11-13T23:42:48.730Z,23.33
2017-11-13T23:45:17.034Z,27.03
2017-11-13T23:47:45.321Z,41.00
2017-11-13T23:50:14.372Z,19.13
2017-11-13T23:52:42.679Z,14.47
2017-11-13T23:55:11.740Z,12.30
2017-11-13T23:57:40.041Z,12.50
